Time,TemperatureF,DewpointF,PressureIn,WindDirection,WindDirectionDegrees,WindSpeedMPH,WindSpeedGustMPH,Humidity,HourlyPrecipIn,Conditions,Clouds,dailyrainin,SoftwareType,DateUTC
2013-07-02 00:01:00,80.1,39.0,29.56,East,86,0.0,-999.0,23,-99.99,,,0.00,weatherlink.com 1.10,2013-07-02 06:01:00,
2013-07-02 00:16:00,79.9,40.0,29.56,East,86,0.0,-999.0,24,-99.99,,,0.00,weatherlink.com 1.10,2013-07-02 06:16:00,
2013-07-02 00:31:00,79.0,40.0,29.57,East,86,0.0,-999.0,25,-99.99,,,0.00,weatherlink.com 1.10,2013-07-02 06:31:00,
2013-07-02 00:46:00,78.3,40.0,29.57,East,86,0.0,-999.0,25,-99.99,,,0.00,weatherlink.com 1.10,2013-07-02 06:46:00,
2013-07-02 01:01:00,77.2,41.0,29.57,East,86,0.0,-999.0,27,-99.99,,,0.00,weatherlink.com 1.10,2013-07-02 07:01:00,
2013-07-02 01:16:00,76.5,40.0,29.57,East,86,0.0,-999.0,27,-99.99,,,0.00,weatherlink.com 1.10,2013-07-02 07:16:00,
2013-07-02 01:31:00,76.3,41.0,29.57,East,86,0.0,-999.0,28,-99.99,,,0.00,weatherlink.com 1.10,2013-07-02 07:31:00,
2013-07-02 01:46:00,75.4,40.0,29.57,East,86,0.0,-999.0,28,-99.99,,,0.00,weatherlink.com 1.10,2013-07-02 07:46:00,
2013-07-02 02:01:00,74.7,40.0,29.57,East,86,0.0,-999.0,29,-99.99,,,0.00,weatherlink.com 1.10,2013-07-02 08:01:00,
2013-07-02 02:16:00,74.0,41.0,29.57,East,86,0.0,-999.0,30,-99.99,,,0.00,weatherlink.com 1.10,2013-07-02 08:16:00,
2013-07-02 02:31:00,73.7,40.0,29.57,East,86,0.0,-999.0,30,-99.99,,,0.00,weatherlink.com 1.10,2013-07-02 08:31:00,
2013-07-02 02:46:00,73.7,40.0,29.57,East,86,0.0,-999.0,30,-99.99,,,0.00,weatherlink.com 1.10,2013-07-02 08:46:00,
2013-07-02 03:01:00,73.0,39.0,29.59,East,86,0.0,-999.0,29,-99.99,,,0.00,weatherlink.com 1.10,2013-07-02 09:01:00,
2013-07-02 03:16:00,72.8,40.0,29.59,East,86,0.0,-999.0,30,-99.99,,,0.00,weatherlink.com 1.10,2013-07-02 09:16:00,
2013-07-02 03:31:00,72.7,39.0,29.59,East,86,0.0,-999.0,30,-99.99,,,0.00,weatherlink.com 1.10,2013-07-02 09:31:00,
2013-07-02 03:46:00,71.8,40.0,29.60,East,86,0.0,-999.0,32,-99.99,,,0.00,weatherlink.com 1.10,2013-07-02 09:46:00,
2013-07-02 04:01:00,71.1,39.0,29.61,East,86,0.0,-999.0,31,-99.99,,,0.00,weatherlink.com 1.10,2013-07-02 10:01:00,
2013-07-02 04:16:00,71.1,38.0,29.61,East,86,0.0,-999.0,30,-99.99,,,0.00,weatherlink.com 1.10,2013-07-02 10:16:00,
2013-07-02 04:31:00,72.3,36.0,29.61,East,86,0.0,-999.0,27,-99.99,,,0.00,weatherlink.com 1.10,2013-07-02 10:31:00,
2013-07-02 04:46:00,72.7,38.0,29.62,East,86,0.0,-999.0,28,-99.99,,,0.00,weatherlink.com 1.10,2013-07-02 10:46:00,
2013-07-02 05:01:00,72.1,37.0,29.62,East,86,1.0,-999.0,28,-99.99,,,0.00,weatherlink.com 1.10,2013-07-02 11:01:00,
2013-07-02 05:16:00,71.6,39.0,29.64,East,86,0.0,-999.0,30,-99.99,,,0.00,weatherlink.com 1.10,2013-07-02 11:16:00,
2013-07-02 05:31:00,72.1,38.0,29.63,East,86,0.0,-999.0,29,-99.99,,,0.00,weatherlink.com 1.10,2013-07-02 11:31:00,
2013-07-02 05:46:00,74.0,40.0,29.63,SE,143,0.0,-999.0,29,-99.99,,,0.00,weatherlink.com 1.10,2013-07-02 11:46:00,
2013-07-02 06:02:00,73.9,41.0,29.62,SE,143,0.0,-999.0,30,-99.99,,,0.00,weatherlink.com 1.10,2013-07-02 12:02:00,
2013-07-02 06:17:00,73.0,42.0,29.75,SE,143,0.0,-999.0,33,-99.99,,,0.00,weatherlink.com 1.10,2013-07-02 12:17:00,
2013-07-02 06:32:00,72.7,44.0,29.75,SE,143,0.0,-999.0,36,-99.99,,,0.00,weatherlink.com 1.10,2013-07-02 12:32:00,
2013-07-02 06:47:00,74.0,46.0,29.75,SE,143,1.0,-999.0,37,-99.99,,,0.00,weatherlink.com 1.10,2013-07-02 12:47:00,
2013-07-02 07:02:00,75.6,47.0,29.74,NE,54,0.0,-999.0,37,-99.99,,,0.00,weatherlink.com 1.10,2013-07-02 13:02:00,
2013-07-02 07:17:00,77.7,49.0,29.72,SSE,161,0.0,-999.0,37,-99.99,,,0.00,weatherlink.com 1.10,2013-07-02 13:17:00,
2013-07-02 07:32:00,78.5,51.0,29.71,SSE,161,0.0,-999.0,39,-99.99,,,0.00,weatherlink.com 1.10,2013-07-02 13:32:00,
2013-07-02 07:47:00,80.9,50.0,29.70,SSE,161,0.0,-999.0,34,-99.99,,,0.00,weatherlink.com 1.10,2013-07-02 13:47:00,
2013-07-02 08:02:00,84.0,46.0,29.70,North,355,0.0,-999.0,26,-99.99,,,0.00,weatherlink.com 1.10,2013-07-02 14:02:00,
2013-07-02 08:17:00,85.5,45.0,29.68,North,355,0.0,-999.0,24,-99.99,,,0.00,weatherlink.com 1.10,2013-07-02 14:17:00,
2013-07-02 08:47:00,89.7,46.0,29.65,NNE,17,1.0,-999.0,22,-99.99,,,0.00,weatherlink.com 1.10,2013-07-02 14:47:00,
2013-07-02 09:02:00,90.3,45.0,29.65,NNE,17,1.0,-999.0,21,-99.99,,,0.00,weatherlink.com 1.10,2013-07-02 15:02:00,
2013-07-02 09:17:00,90.3,44.0,29.64,SW,223,5.0,-999.0,20,-99.99,,,0.00,weatherlink.com 1.10,2013-07-02 15:17:00,
2013-07-02 09:32:00,89.5,45.0,29.64,SSW,207,4.0,-999.0,21,-99.99,,,0.00,weatherlink.com 1.10,2013-07-02 15:32:00,
2013-07-02 09:47:00,91.4,45.0,29.63,SE,128,0.0,-999.0,20,-99.99,,,0.00,weatherlink.com 1.10,2013-07-02 15:47:00,
2013-07-02 10:02:00,92.9,45.0,29.61,SSE,149,2.0,-999.0,19,-99.99,,,0.00,weatherlink.com 1.10,2013-07-02 16:02:00,
2013-07-02 10:17:00,94.9,44.0,29.63,SSE,149,0.0,-999.0,17,-99.99,,,0.00,weatherlink.com 1.10,2013-07-02 16:17:00,
2013-07-02 10:32:00,93.8,44.0,29.63,NE,49,2.0,-999.0,18,-99.99,,,0.00,weatherlink.com 1.10,2013-07-02 16:32:00,
2013-07-02 10:47:00,93.2,45.0,29.64,West,265,4.0,-999.0,19,-99.99,,,0.00,weatherlink.com 1.10,2013-07-02 16:47:00,
2013-07-02 11:02:00,92.9,42.0,29.64,West,269,0.0,-999.0,17,-99.99,,,0.00,weatherlink.com 1.10,2013-07-02 17:02:00,
2013-07-02 11:17:00,94.0,41.0,29.65,West,265,2.0,-999.0,16,-99.99,,,0.00,weatherlink.com 1.10,2013-07-02 17:17:00,
2013-07-02 11:32:00,93.8,40.0,29.64,West,273,0.0,-999.0,15,-99.99,,,0.00,weatherlink.com 1.10,2013-07-02 17:32:00,
2013-07-02 11:47:00,95.1,41.0,29.64,South,187,5.0,-999.0,15,-99.99,,,0.00,weatherlink.com 1.10,2013-07-02 17:47:00,
2013-07-02 12:02:00,96.1,41.0,29.63,West,267,1.0,-999.0,15,-99.99,,,0.00,weatherlink.com 1.10,2013-07-02 18:02:00,
2013-07-02 12:17:00,97.1,40.0,29.63,WNW,285,2.0,-999.0,14,-99.99,,,0.00,weatherlink.com 1.10,2013-07-02 18:17:00,
2013-07-02 12:32:00,96.8,38.0,29.62,NW,304,0.0,-999.0,13,-99.99,,,0.00,weatherlink.com 1.10,2013-07-02 18:32:00,
2013-07-02 12:47:00,97.5,39.0,29.62,North,360,1.0,-999.0,13,-99.99,,,0.00,weatherlink.com 1.10,2013-07-02 18:47:00,
2013-07-02 13:02:00,97.1,39.0,29.61,SSW,208,1.0,-999.0,13,-99.99,,,0.00,weatherlink.com 1.10,2013-07-02 19:02:00,
2013-07-02 13:17:00,98.7,38.0,29.61,WSW,255,5.0,-999.0,12,-99.99,,,0.00,weatherlink.com 1.10,2013-07-02 19:17:00,
2013-07-02 13:32:00,99.2,38.0,29.60,West,270,3.0,-999.0,12,-99.99,,,0.00,weatherlink.com 1.10,2013-07-02 19:32:00,
2013-07-02 13:47:00,99.7,39.0,29.59,SW,216,2.0,-999.0,12,-99.99,,,0.00,weatherlink.com 1.10,2013-07-02 19:47:00,
2013-07-02 14:02:00,99.9,39.0,29.59,West,264,0.0,-999.0,12,-99.99,,,0.00,weatherlink.com 1.10,2013-07-02 20:02:00,
2013-07-02 14:17:00,100.2,39.0,29.58,West,261,7.0,-999.0,12,-99.99,,,0.00,weatherlink.com 1.10,2013-07-02 20:17:00,
2013-07-02 14:32:00,100.4,37.0,29.58,WSW,256,5.0,-999.0,11,-99.99,,,0.00,weatherlink.com 1.10,2013-07-02 20:32:00,
2013-07-02 14:47:00,100.7,37.0,29.57,West,278,3.0,-999.0,11,-99.99,,,0.00,weatherlink.com 1.10,2013-07-02 20:47:00,
2013-07-02 15:02:00,102.8,39.0,29.55,West,270,1.0,-999.0,11,-99.99,,,0.00,weatherlink.com 1.10,2013-07-02 21:02:00,
2013-07-02 15:17:00,103.8,40.0,29.54,WSW,248,2.0,-999.0,11,-99.99,,,0.00,weatherlink.com 1.10,2013-07-02 21:17:00,
2013-07-02 15:32:00,102.8,36.0,29.53,NNW,334,2.0,-999.0,10,-99.99,,,0.00,weatherlink.com 1.10,2013-07-02 21:32:00,
2013-07-02 15:47:00,104.4,38.0,29.52,WSW,245,2.0,-999.0,10,-99.99,,,0.00,weatherlink.com 1.10,2013-07-02 21:47:00,
2013-07-02 16:02:00,103.6,37.0,29.52,SSW,208,4.0,-999.0,10,-99.99,,,0.00,weatherlink.com 1.10,2013-07-02 22:02:00,
2013-07-02 16:17:00,103.8,37.0,29.51,WSW,254,3.0,-999.0,10,-99.99,,,0.00,weatherlink.com 1.10,2013-07-02 22:17:00,
2013-07-02 16:32:00,104.6,38.0,29.50,WNW,292,3.0,-999.0,10,-99.99,,,0.00,weatherlink.com 1.10,2013-07-02 22:32:00,
2013-07-02 16:48:00,105.1,36.0,29.49,WSW,257,2.0,-999.0,9,-99.99,,,0.00,weatherlink.com 1.10,2013-07-02 22:48:00,
2013-07-02 17:03:00,103.3,34.0,29.50,ENE,67,5.0,-999.0,9,-99.99,,,0.00,weatherlink.com 1.10,2013-07-02 23:03:00,
2013-07-02 17:18:00,103.8,35.0,29.48,West,275,0.0,-999.0,9,-99.99,,,0.00,weatherlink.com 1.10,2013-07-02 23:18:00,
2013-07-02 17:33:00,103.8,40.0,29.47,NW,304,2.0,-999.0,11,-99.99,,,0.00,weatherlink.com 1.10,2013-07-02 23:33:00,
2013-07-02 17:48:00,105.1,36.0,29.46,WNW,286,2.0,-999.0,9,-99.99,,,0.00,weatherlink.com 1.10,2013-07-02 23:48:00,
2013-07-02 18:03:00,104.1,35.0,29.46,NNW,344,1.0,-999.0,9,-99.99,,,0.00,weatherlink.com 1.10,2013-07-03 00:03:00,
2013-07-02 18:18:00,104.6,38.0,29.44,NNE,14,4.0,-999.0,10,-99.99,,,0.00,weatherlink.com 1.10,2013-07-03 00:18:00,
2013-07-02 18:33:00,104.1,40.0,29.44,West,269,1.0,-999.0,11,-99.99,,,0.00,weatherlink.com 1.10,2013-07-03 00:33:00,
2013-07-02 18:48:00,102.5,39.0,29.45,West,262,0.0,-999.0,11,-99.99,,,0.00,weatherlink.com 1.10,2013-07-03 00:48:00,
2013-07-02 19:03:00,103.1,41.0,29.44,West,275,2.0,-999.0,12,-99.99,,,0.00,weatherlink.com 1.10,2013-07-03 01:03:00,
2013-07-02 19:18:00,102.8,41.0,29.41,NNW,343,2.0,-999.0,12,-99.99,,,0.00,weatherlink.com 1.10,2013-07-03 01:18:00,
2013-07-02 19:33:00,102.3,33.0,29.42,North,5,0.0,-999.0,9,-99.99,,,0.00,weatherlink.com 1.10,2013-07-03 01:33:00,
2013-07-02 20:03:00,99.7,31.0,29.43,West,271,2.0,-999.0,9,-99.99,,,0.00,weatherlink.com 1.10,2013-07-03 02:03:00,
2013-07-02 20:18:00,98.7,33.0,29.41,NE,55,0.0,-999.0,10,-99.99,,,0.00,weatherlink.com 1.10,2013-07-03 02:18:00,
2013-07-02 20:33:00,98.2,35.0,29.41,NNE,27,1.0,-999.0,11,-99.99,,,0.00,weatherlink.com 1.10,2013-07-03 02:33:00,
2013-07-02 20:48:00,98.0,33.0,29.41,ENE,71,1.0,-999.0,10,-99.99,,,0.00,weatherlink.com 1.10,2013-07-03 02:48:00,
2013-07-02 21:33:00,95.9,33.0,29.43,NNE,18,1.0,-999.0,11,-99.99,,,0.00,weatherlink.com 1.10,2013-07-03 03:33:00,
2013-07-02 21:48:00,96.1,34.0,29.43,ESE,119,1.0,-999.0,11,-99.99,,,0.00,weatherlink.com 1.10,2013-07-03 03:48:00,
2013-07-02 22:03:00,95.1,35.0,29.44,ENE,59,0.0,-999.0,12,-99.99,,,0.00,weatherlink.com 1.10,2013-07-03 04:03:00,
2013-07-02 22:18:00,94.7,35.0,29.44,NE,43,0.0,-999.0,12,-99.99,,,0.00,weatherlink.com 1.10,2013-07-03 04:18:00,
2013-07-02 22:33:00,93.2,35.0,29.46,NE,43,0.0,-999.0,13,-99.99,,,0.00,weatherlink.com 1.10,2013-07-03 04:33:00,
2013-07-02 22:48:00,91.8,36.0,29.46,NE,43,0.0,-999.0,14,-99.99,,,0.00,weatherlink.com 1.10,2013-07-03 04:48:00,
2013-07-02 23:03:00,89.9,36.0,29.47,NE,43,0.0,-999.0,15,-99.99,,,0.00,weatherlink.com 1.10,2013-07-03 05:03:00,
2013-07-02 23:18:00,87.2,39.0,29.48,NE,43,0.0,-999.0,18,-99.99,,,0.00,weatherlink.com 1.10,2013-07-03 05:18:00,
2013-07-02 23:33:00,84.3,39.0,29.49,NE,43,0.0,-999.0,20,-99.99,,,0.00,weatherlink.com 1.10,2013-07-03 05:33:00,
2013-07-02 23:48:00,82.2,40.0,29.50,NE,43,0.0,-999.0,22,-99.99,,,0.00,weatherlink.com 1.10,2013-07-03 05:48:00,